RESULTATS »

INSCRITS PRESENTATS ACABEN RETIRATS DESQUALIFICATS DIST. TRAM 1 DIST. TRAM 2 DIST. TRAM 3 TEMP. EXT TEMP. AIGUA
482 470 9 3 750 20 5 0 17

CLASSIFICACIÓ

MASCULÍ FEMENÍ CATEGORIES CLUBS (MASCULINA) CLUBS (FEMENINA) INDIVIDUALS GRUPS D'EDAT

LLOCDORSALNOMCLUBCAT.T.META| P.Tram 1 || P.Tram 2 |Km/hTEMPS| P.Tram 3 |PARC_1PARC_2
1 33SARA LOEHR MUÑOZC.N. VIC-ETBABF01:01:446100:10:515000:32:1637.1900:43:075300:18:370:00:000:00:00
2 3516NURIA PEIX TARRESC.N. VIC-ETBSUB23F01:03:004900:10:326500:32:4036.7300:43:1212900:19:480:00:000:00:00
3 5080PAULA BATLLE I PLANTADAFASTTRIATLON CLUBJNF01:05:535900:10:4918000:35:2633.8700:46:1511500:19:380:00:000:00:00
4 1859VERÓNICA ANDREA AVENI RAPC.N. VIC-ETBABF01:06:346200:10:5217600:35:2233.9300:46:1415900:20:200:00:000:00:00
5 4040LAIA CONESA I MURFASTTRIATLON CLUBJNF01:07:169300:11:2518600:35:3933.6600:47:0415200:20:120:00:000:00:00
6 1852AIDA PINTO BIESCASFASTTRIATLON CLUBABF01:09:4511200:11:4825400:37:1032.2900:48:5818200:20:470:00:000:00:00
7 105CAROLINA JORDI OLANOC.T. S.J. ABADESSESABF01:09:5912100:12:0223800:36:5032.5800:48:5219300:21:070:00:000:00:00
8 6032EUGENIA DUBINSKAYA LLICENCIA DE DIACDF01:10:0213300:12:1122700:36:3132.8600:48:4220800:21:200:00:000:00:00
9 3501MIRIAM CODINA CASTILLOCLUB TRIATLO GRANOLLERSABF01:10:2017500:12:4321700:36:2332.9800:49:0620200:21:140:00:000:00:00
10 1863BARBARA RUBIO FORCADAC.E. TRIATHLONBCNSUB23F01:10:237500:11:0227700:38:0231.5500:49:0420700:21:190:00:000:00:00
11 5027MARTA ROMANCE OMSC.N. SABADELLCDF01:10:2516600:12:3726600:37:4331.8200:50:2014200:20:050:00:000:00:00
12 27ÈLIA IBARRA CAZORLAC.A. IGUALADACDF01:10:507000:10:5932300:39:1130.6300:50:1017300:20:400:00:000:00:00
13 5199ANNA CARRIÓN I BAREAINDEPENDENTCDF01:11:233200:10:0331800:39:0430.7200:49:0726300:22:160:00:000:00:00
14 6010ELIZAVETA KREMKOVA LLICENCIA DE DIACDF01:11:265000:10:3628300:38:1131.4300:48:4728300:22:390:00:000:00:00
15 3591LARA GUTIERREZ MORENOTRIATLO PALLEJAABF01:11:5412900:12:0724000:36:5232.5500:48:5930600:22:550:00:000:00:00
16 2000LAIA GALI MONTIELC.T. S.J. ABADESSESABF01:12:1124600:13:3324100:36:5232.5500:50:2523800:21:460:00:000:00:00
17 5124IVETTE MOLINO RAMÍREZC.N. VIC-ETBABF01:12:1811900:11:5823900:36:5132.5600:48:4933500:23:290:00:000:00:00
18 1837LAURA MAQUEDA MARCOSC.T. S.J. ABADESSESABF01:12:3010900:11:4525500:37:1532.2100:49:0033600:23:300:00:000:00:00
19 66BARBARA VASSILATOSC.T. S.J. ABADESSESV1F01:12:5018200:12:4624900:37:0132.4200:49:4730900:23:030:00:000:00:00
20 6037YULIA DUBINSKAYALLICENCIA DE DIAV1F01:13:2825200:13:3826100:37:3131.9900:51:0926600:22:190:00:000:00:00
21 1815BELÉN SALOMONI SCHWABC.N. VIC-ETBABF01:13:3716200:12:3427000:37:5331.6800:50:2731800:23:100:00:000:00:00
22 4077MARTA MARTIN ALEGREC.E. SISTRELLSABF01:14:0127700:14:0231000:38:4630.9500:52:4819800:21:130:00:000:00:00
23 4055CARLA FIGUERA FERRERFASTTRIATLON CLUBABF01:14:0819100:12:5026400:37:3931.8700:50:2934400:23:390:00:000:00:00
24 3553LAIA MARTIN MAGDALENAGAVA TRIATLOJNF01:14:1719400:12:5330600:38:4430.9800:51:3728600:22:400:00:000:00:00
25 1902Mª ANGELS MARZO GOMEZCLUB NATACIÓ SITGESABF01:14:2513100:12:1029800:38:3231.1400:50:4234700:23:430:00:000:00:00
26 7002M.JOSE MUÑOZ SANTAMANSMORTES BIKES-VRP ELECTRICABF01:15:1731600:14:2828900:38:2231.2800:52:5027400:22:270:00:000:00:00
27 4069SARAI NARBONA CONEJEROCLUB ESPORTIU PRORUNNERSABF01:16:2219600:12:5433900:39:5530.0600:52:4933800:23:330:00:000:00:00
28 3530MONICA MINGUET ADROHERTG TRIATLO SITGESV1F01:16:4820100:12:5834200:40:0129.9900:52:5935100:23:490:00:000:00:00
29 5141ANA DILLANA BENITOFASTTRIATLON CLUBABF01:16:5630300:14:1734300:40:0129.9900:54:1828200:22:380:00:000:00:00
30 5019CORAL MONTAÑA PONSACLUB TRIATLO GRANOLLERSV1F01:17:0928700:14:0634700:40:0929.8900:54:1530400:22:540:00:000:00:00
31 6015MIREIA MASIP CARCELENLLICENCIA DE DIAABF01:17:5120400:13:0036200:40:4229.4800:53:4236700:24:090:00:000:00:00
32 5059ROSER PLADEVALL IZARDC.N. SABADELLABF01:18:3026900:13:5532200:39:0930.6500:53:0439600:25:260:00:000:00:00
33 4071ELECTRA GARCIA MARGALEFCAMBRILS CLUB TRIATLOABF01:18:3938600:15:2634800:40:1129.8600:55:3730700:23:020:00:000:00:00
34 1835ANA MARÍA OTERO PIÑEIROABSOLUT SPORTABF01:18:4041900:16:1034900:40:1129.8600:56:2126800:22:190:00:000:00:00
35 3568MAITE MARZO GOMEZCLUB ESPORTIU CUBE MANRESV1F01:19:0540100:15:4437200:41:0029.2700:56:4427200:22:210:00:000:00:00
36 3506ALEJANDRA PALOMARES PALMAC.N. CASTELLET TRIATLÓJNF01:19:3411800:11:5435400:40:1429.8300:52:0843800:27:260:00:000:00:00
37 6004NICOLA CHRISTOFOROULLICENCIA DE DIAV2F01:19:3639400:15:3937300:41:0229.2400:56:4130500:22:550:00:000:00:00
38 5154EVA LAMELA IZQUIERDOTG TRIATLO SITGESV1F01:19:5442500:16:1935300:40:1229.8500:56:3132700:23:230:00:000:00:00
39 1841LUCIA BERMEJO CALVOCAMBRILS CLUB TRIATLOABF01:20:1732800:14:3935700:40:2329.7200:55:0239300:25:150:00:000:00:00
40 5104DESIREE VIDAL COMASCLUB NATACIO SITGESABF01:20:2131400:14:2640400:42:1928.3600:56:4534000:23:360:00:000:00:00
41 1880PATRICIA BENITEZ RODRIGUEC.E. TRIATHLONBCNABF01:20:2833600:14:4540900:42:5028.0200:57:3530300:22:530:00:000:00:00
42 122INES MESTRE CARRASCOCLUB TRIATLO BLANESABF01:21:0935600:15:0035200:40:1229.8500:55:1240700:25:570:00:000:00:00
43 5054SILVIA ROSENDO NAVARROC.N. SABADELLCDF01:21:302900:09:5943700:44:2826.9900:54:2743100:27:030:00:000:00:00
44 1941CRISTINA MARTINEZ RUBIOC.N. VIC-ETBABF01:21:3227100:13:5738000:41:1929.0400:55:1641500:26:160:00:000:00:00
45 4041CAROLINA APARICIO CABANILC.N. SABADELLABF01:21:4543600:16:4534600:40:0829.9000:56:5338300:24:520:00:000:00:00
46 5177LAURA GIMENO NOGUERAC.T. S.J. ABADESSESCDF01:22:1026500:13:5140300:42:0928.4700:56:0041200:26:100:00:000:00:00
47 3540MIRJA KLOTZFASTTRIATLON CLUBABF01:22:1333300:14:4341000:42:5427.9700:57:3737500:24:360:00:000:00:00
48 5034JULIA LEIRADO SILVAABSOLUT SPORTABF01:22:2344300:16:5733700:39:4630.1800:56:4340100:25:400:00:000:00:00
49 5101ANNA MACIÀ SOLERTG TRIATLO SITGESCDF01:22:4318300:12:4742500:43:4927.3900:56:3641000:26:070:00:000:00:00
50 1851MARTA SANCHEZ SALINASCLUB TRIATLO L´EIX DE NAVV1F01:23:0540500:15:4641100:42:5527.9600:58:4137100:24:240:00:000:00:00
51 1970NURI LOZADA ESPÍCLUB NATACIO SITGESV1F01:23:0643500:16:4337800:41:1229.1300:57:5538900:25:110:00:000:00:00
52 1977CRISTINA ORTIZ FONTANETFASTTRIATLON CLUBABF01:23:2743400:16:3940200:42:0928.4700:58:4837700:24:390:00:000:00:00
53 5038ADELAIDA CABO PAVIAABSOLUT SPORTABF01:23:4142700:16:2236000:40:3929.5200:57:0142700:26:400:00:000:00:00
54 4016SILVIA GARCIA XIFRÉCLUB TRIATLO BLANESV1F01:24:0243300:16:3936500:40:5529.3300:57:3442400:26:280:00:000:00:00
55 7001AMPARO MUÑOZ SANTAMANSMORTES BIKES-VRP ELECTRICABF01:24:1343900:16:5141800:43:1527.7501:00:0636500:24:070:00:000:00:00
56 5095CLAUDIA SOGAS LOPEZGAVA TRIATLOCDF01:24:4422600:13:1839300:41:4928.7000:55:0745600:29:370:00:000:00:00
57 5176ESTELA VALERO RÓDENASPRAT TRIATLO 1994ABF01:25:0325700:13:4345300:46:2825.8201:00:1138200:24:520:00:000:00:00
58 31MONTSE CUEVAS CASTILLOCLUB TRIATLO GRANOLLERSV2F01:25:0341200:15:5942600:43:5227.3600:59:5139000:25:120:00:000:00:00
59 6028SARA RODRÍGUEZ ESPALLARDOLLICENCIA DE DIAABF01:25:3137400:15:2044200:45:0526.6201:00:2538600:25:060:00:000:00:00
60 128SAMANTHA ARISTA RIVASC.N. SABADELLJNF01:25:4837100:15:1437000:41:0029.2700:56:1445400:29:340:00:000:00:00
61 3505NOEMI APARICIO CABANILLASC.N. SABADELLABF01:26:1740000:15:4343500:44:1727.1001:00:0041600:26:170:00:000:00:00
62 5180ESTHER LARROSA MONTEMAYORTG TRIATLO SITGESABF01:27:1340900:15:5443000:43:5827.2900:59:5243600:27:210:00:000:00:00
63 5041ALBA SANCHEZ NAVASCLUB TRIATLO SABADELLABF01:27:1943100:16:3545200:46:1425.9601:02:4937400:24:300:00:000:00:00
64 7003VICTORIA JÓDAR MANZANERALLICENCIA DE DIAABF01:27:4946100:19:0940100:42:0728.4901:01:1642500:26:330:00:000:00:00
65 6019JENNIFER RAMIREZ MOLINOLLICENCIA DE DIAABF01:28:5918600:12:4943200:44:1027.1700:56:5946900:32:000:00:000:00:00
66 3538NELA LOZANO TARRIÑOFASTTRIATLON CLUBV1F01:29:0145300:17:5045700:47:1025.4401:05:0035900:24:010:00:000:00:00
67 20MONTSERRAT CLAVERO SANCHEC.N. REUS PLOMSV3F01:30:0142800:16:2544000:45:0326.6401:01:2844900:28:330:00:000:00:00
68 25ALBA MARTINEZ DE LA CRUZC.N. BADALONAABF01:30:2443200:16:3746000:48:4424.6201:05:2138500:25:030:00:000:00:00
69 6012ELISA MARTI GOROSTIZALLICENCIA DE DIAV2F01:31:0144900:17:3944500:45:1526.5201:02:5444700:28:070:00:000:00:00
70 7007DEBBIE EARLLLICENCIA DE DIAV2F01:31:3746400:19:2743800:44:4026.8701:04:0743900:27:300:00:000:00:00
71 5074ARACELI DE LA VEGA DOMINGCLUB NATACIO SITGESV1F01:33:0228200:14:0546300:49:2224.3101:03:2745500:29:350:00:000:00:00
72 6005ESTHER PEREZ MARTINEZLLICENCIA DE DIAV2F01:34:0346600:20:1444400:45:1226.5501:05:2645200:28:370:00:000:00:00
73 5072YOLANDA VIDAL SEGUIINDEPENDENTABF01:36:3546500:20:1146200:48:5324.5501:09:0444000:27:310:00:000:00:00
74 28ROSA MARIA GIBERNA CONDECERRR IGUALADAV1F01:38:3745000:17:4246400:49:5124.0701:07:3346400:31:040:00:000:00:00
75 5009LAIA HERNÀNDEZ GÓMEZTRIATLO L´HOSPITALETABF01:39:0835400:14:5846600:52:2622.8901:07:2446700:31:440:00:000:00:00
76 1920ESTER LAFITA SANCHEZCERDANYOLA CHV2F01:40:0343700:16:4746500:52:2622.8901:09:1346300:30:500:00:000:00:00
77 4019NURIA PERAPOCH CUNYATCLUB TRIATLO BLANESV1F01:45:1746800:20:2146800:53:4822.3001:14:0946500:31:080:00:000:00:00






FEDERACIÓ CATALANA DE TRIATLÓ
SEU CENTRAL I CORRESPONDÈNCIA: Rambla Guipúscoa 23-25 2on-D · 08018 Barcelona · Tel / Fax : 93 307 93 35
ATENCIÓ AL PÚBLIC: Passeig Joan de Borbó, 93 (Club Natació Barcelona) · 08039 Barcelona · Tel / Fax : 93 307 93 32